sensor_id;sensor_type;location;lat;lon;timestamp;P1;durP1;ratioP1;P2;durP2;ratioP2
870;SDS011;422;51.280;7.236;2024-01-16T00:02:22;21.67;;;15.57;;
870;SDS011;422;51.280;7.236;2024-01-16T00:04:49;17.67;;;13.23;;
870;SDS011;422;51.280;7.236;2024-01-16T00:07:17;20.03;;;13.57;;
870;SDS011;422;51.280;7.236;2024-01-16T00:09:46;18.73;;;13.03;;
870;SDS011;422;51.280;7.236;2024-01-16T00:12:13;16.77;;;12.00;;
870;SDS011;422;51.280;7.236;2024-01-16T00:14:40;16.03;;;12.47;;
870;SDS011;422;51.280;7.236;2024-01-16T00:17:08;17.17;;;13.33;;
870;SDS011;422;51.280;7.236;2024-01-16T00:19:36;13.70;;;10.70;;
870;SDS011;422;51.280;7.236;2024-01-16T00:22:04;20.73;;;12.40;;
870;SDS011;422;51.280;7.236;2024-01-16T00:24:31;16.70;;;10.83;;
870;SDS011;422;51.280;7.236;2024-01-16T00:26:58;12.97;;;9.67;;
870;SDS011;422;51.280;7.236;2024-01-16T00:29:25;15.37;;;11.87;;
870;SDS011;422;51.280;7.236;2024-01-16T00:31:53;16.13;;;11.00;;
870;SDS011;422;51.280;7.236;2024-01-16T00:34:20;17.60;;;11.13;;
870;SDS011;422;51.280;7.236;2024-01-16T00:36:49;18.50;;;12.03;;
870;SDS011;422;51.280;7.236;2024-01-16T00:39:16;22.13;;;12.20;;
870;SDS011;422;51.280;7.236;2024-01-16T00:41:44;21.20;;;12.80;;
870;SDS011;422;51.280;7.236;2024-01-16T00:44:11;16.97;;;13.50;;
870;SDS011;422;51.280;7.236;2024-01-16T00:46:39;17.13;;;12.77;;
870;SDS011;422;51.280;7.236;2024-01-16T00:49:06;17.10;;;12.90;;
870;SDS011;422;51.280;7.236;2024-01-16T00:51:34;16.43;;;12.23;;
870;SDS011;422;51.280;7.236;2024-01-16T00:54:03;15.60;;;10.93;;
870;SDS011;422;51.280;7.236;2024-01-16T00:56:31;20.50;;;12.13;;
870;SDS011;422;51.280;7.236;2024-01-16T00:58:59;16.00;;;11.40;;
870;SDS011;422;51.280;7.236;2024-01-16T01:01:26;13.13;;;10.87;;
870;SDS011;422;51.280;7.236;2024-01-16T01:03:54;12.50;;;9.80;;
870;SDS011;422;51.280;7.236;2024-01-16T01:06:21;14.77;;;10.20;;
870;SDS011;422;51.280;7.236;2024-01-16T01:08:48;11.83;;;9.73;;
870;SDS011;422;51.280;7.236;2024-01-16T01:11:17;13.03;;;8.57;;
870;SDS011;422;51.280;7.236;2024-01-16T01:13:45;12.17;;;8.23;;
870;SDS011;422;51.280;7.236;2024-01-16T01:16:12;15.63;;;7.80;;
870;SDS011;422;51.280;7.236;2024-01-16T01:18:39;15.37;;;10.30;;
870;SDS011;422;51.280;7.236;2024-01-16T01:21:06;11.23;;;8.83;;
870;SDS011;422;51.280;7.236;2024-01-16T01:23:34;10.67;;;7.43;;
870;SDS011;422;51.280;7.236;2024-01-16T01:26:01;12.13;;;9.20;;
870;SDS011;422;51.280;7.236;2024-01-16T01:28:31;11.10;;;8.40;;
870;SDS011;422;51.280;7.236;2024-01-16T01:30:58;12.30;;;8.50;;
870;SDS011;422;51.280;7.236;2024-01-16T01:33:25;12.53;;;7.97;;
870;SDS011;422;51.280;7.236;2024-01-16T01:35:52;11.73;;;8.70;;
870;SDS011;422;51.280;7.236;2024-01-16T01:38:20;9.40;;;6.37;;
870;SDS011;422;51.280;7.236;2024-01-16T01:40:47;10.77;;;7.50;;
870;SDS011;422;51.280;7.236;2024-01-16T01:43:17;8.93;;;6.43;;
870;SDS011;422;51.280;7.236;2024-01-16T01:45:51;11.50;;;7.93;;
870;SDS011;422;51.280;7.236;2024-01-16T01:48:29;18.10;;;7.97;;
870;SDS011;422;51.280;7.236;2024-01-16T01:50:57;11.77;;;8.07;;
870;SDS011;422;51.280;7.236;2024-01-16T01:53:25;16.80;;;9.37;;
870;SDS011;422;51.280;7.236;2024-01-16T01:55:52;9.90;;;8.27;;
870;SDS011;422;51.280;7.236;2024-01-16T01:58:20;10.90;;;9.13;;
870;SDS011;422;51.280;7.236;2024-01-16T02:00:50;11.20;;;8.77;;
870;SDS011;422;51.280;7.236;2024-01-16T02:03:17;14.93;;;9.67;;
870;SDS011;422;51.280;7.236;2024-01-16T02:05:45;15.63;;;9.20;;
870;SDS011;422;51.280;7.236;2024-01-16T02:08:13;14.17;;;10.30;;
870;SDS011;422;51.280;7.236;2024-01-16T02:10:40;11.50;;;9.70;;
870;SDS011;422;51.280;7.236;2024-01-16T02:13:12;15.27;;;10.10;;
870;SDS011;422;51.280;7.236;2024-01-16T02:15:40;17.13;;;11.03;;
870;SDS011;422;51.280;7.236;2024-01-16T02:18:08;17.07;;;11.27;;
870;SDS011;422;51.280;7.236;2024-01-16T02:20:36;17.70;;;11.10;;
870;SDS011;422;51.280;7.236;2024-01-16T02:23:03;21.83;;;13.63;;
870;SDS011;422;51.280;7.236;2024-01-16T02:25:33;13.83;;;11.53;;
870;SDS011;422;51.280;7.236;2024-01-16T02:28:01;14.93;;;11.83;;
870;SDS011;422;51.280;7.236;2024-01-16T02:30:28;22.80;;;11.73;;
870;SDS011;422;51.280;7.236;2024-01-16T02:32:56;18.50;;;12.60;;
870;SDS011;422;51.280;7.236;2024-01-16T02:35:23;15.03;;;12.50;;
870;SDS011;422;51.280;7.236;2024-01-16T02:37:50;16.63;;;13.60;;
870;SDS011;422;51.280;7.236;2024-01-16T02:40:17;18.80;;;13.87;;
870;SDS011;422;51.280;7.236;2024-01-16T02:42:46;24.07;;;13.10;;
870;SDS011;422;51.280;7.236;2024-01-16T02:45:13;15.87;;;12.07;;
870;SDS011;422;51.280;7.236;2024-01-16T02:47:40;17.73;;;13.20;;
870;SDS011;422;51.280;7.236;2024-01-16T02:50:08;19.67;;;13.10;;
870;SDS011;422;51.280;7.236;2024-01-16T02:52:36;16.00;;;12.10;;
870;SDS011;422;51.280;7.236;2024-01-16T02:55:03;18.77;;;13.00;;
870;SDS011;422;51.280;7.236;2024-01-16T02:57:31;18.27;;;12.87;;
870;SDS011;422;51.280;7.236;2024-01-16T03:00:00;25.50;;;13.20;;
870;SDS011;422;51.280;7.236;2024-01-16T03:02:28;16.73;;;12.90;;
870;SDS011;422;51.280;7.236;2024-01-16T03:04:55;18.23;;;12.60;;
870;SDS011;422;51.280;7.236;2024-01-16T03:07:22;17.87;;;13.53;;
870;SDS011;422;51.280;7.236;2024-01-16T03:09:49;17.27;;;11.70;;
870;SDS011;422;51.280;7.236;2024-01-16T03:12:17;18.33;;;13.90;;
870;SDS011;422;51.280;7.236;2024-01-16T03:14:44;14.93;;;13.33;;
870;SDS011;422;51.280;7.236;2024-01-16T03:17:12;20.67;;;12.50;;
870;SDS011;422;51.280;7.236;2024-01-16T03:19:39;19.07;;;14.73;;
870;SDS011;422;51.280;7.236;2024-01-16T03:22:08;17.57;;;15.00;;
870;SDS011;422;51.280;7.236;2024-01-16T03:24:36;20.13;;;14.03;;
870;SDS011;422;51.280;7.236;2024-01-16T03:27:03;19.87;;;15.30;;
870;SDS011;422;51.280;7.236;2024-01-16T03:29:30;24.10;;;14.50;;
870;SDS011;422;51.280;7.236;2024-01-16T03:31:58;25.20;;;15.77;;
870;SDS011;422;51.280;7.236;2024-01-16T03:34:27;17.80;;;15.83;;
870;SDS011;422;51.280;7.236;2024-01-16T03:36:56;20.60;;;15.90;;
870;SDS011;422;51.280;7.236;2024-01-16T03:39:23;21.70;;;15.73;;
870;SDS011;422;51.280;7.236;2024-01-16T03:41:51;19.30;;;15.47;;
870;SDS011;422;51.280;7.236;2024-01-16T03:44:18;22.10;;;16.93;;
870;SDS011;422;51.280;7.236;2024-01-16T03:46:45;23.53;;;18.83;;
870;SDS011;422;51.280;7.236;2024-01-16T03:49:12;20.60;;;16.33;;
870;SDS011;422;51.280;7.236;2024-01-16T03:51:41;19.77;;;15.93;;
870;SDS011;422;51.280;7.236;2024-01-16T03:54:11;31.50;;;16.13;;
870;SDS011;422;51.280;7.236;2024-01-16T03:56:38;24.77;;;18.27;;
870;SDS011;422;51.280;7.236;2024-01-16T03:59:06;21.57;;;16.90;;
870;SDS011;422;51.280;7.236;2024-01-16T04:01:33;27.03;;;16.97;;
870;SDS011;422;51.280;7.236;2024-01-16T04:04:02;23.70;;;16.63;;
870;SDS011;422;51.280;7.236;2024-01-16T04:06:31;24.17;;;17.03;;
870;SDS011;422;51.280;7.236;2024-01-16T04:09:00;25.73;;;17.87;;
870;SDS011;422;51.280;7.236;2024-01-16T04:11:28;26.27;;;20.00;;
870;SDS011;422;51.280;7.236;2024-01-16T04:13:55;25.20;;;17.30;;
870;SDS011;422;51.280;7.236;2024-01-16T04:16:22;25.20;;;16.50;;
870;SDS011;422;51.280;7.236;2024-01-16T04:18:49;25.00;;;17.00;;
870;SDS011;422;51.280;7.236;2024-01-16T04:21:17;24.30;;;17.10;;
870;SDS011;422;51.280;7.236;2024-01-16T04:23:44;24.23;;;18.07;;
870;SDS011;422;51.280;7.236;2024-01-16T04:26:12;23.37;;;19.10;;
870;SDS011;422;51.280;7.236;2024-01-16T04:28:39;25.47;;;18.67;;
870;SDS011;422;51.280;7.236;2024-01-16T04:31:06;29.07;;;17.77;;
870;SDS011;422;51.280;7.236;2024-01-16T04:33:33;21.40;;;17.10;;
870;SDS011;422;51.280;7.236;2024-01-16T04:36:00;22.73;;;16.90;;
870;SDS011;422;51.280;7.236;2024-01-16T04:38:27;22.33;;;18.20;;
870;SDS011;422;51.280;7.236;2024-01-16T04:40:54;25.27;;;17.10;;
870;SDS011;422;51.280;7.236;2024-01-16T04:43:23;23.23;;;17.13;;
870;SDS011;422;51.280;7.236;2024-01-16T04:45:50;19.80;;;16.67;;
870;SDS011;422;51.280;7.236;2024-01-16T04:48:17;23.80;;;16.67;;
870;SDS011;422;51.280;7.236;2024-01-16T04:50:44;16.83;;;14.67;;
870;SDS011;422;51.280;7.236;2024-01-16T04:53:11;17.50;;;14.30;;
870;SDS011;422;51.280;7.236;2024-01-16T04:55:39;21.00;;;14.40;;
870;SDS011;422;51.280;7.236;2024-01-16T04:58:06;18.37;;;13.90;;
870;SDS011;422;51.280;7.236;2024-01-16T05:00:35;20.47;;;12.33;;
870;SDS011;422;51.280;7.236;2024-01-16T05:03:03;15.50;;;11.63;;
870;SDS011;422;51.280;7.236;2024-01-16T05:05:31;19.43;;;13.40;;
870;SDS011;422;51.280;7.236;2024-01-16T05:08:00;17.43;;;13.43;;
870;SDS011;422;51.280;7.236;2024-01-16T05:10:28;20.93;;;13.20;;
870;SDS011;422;51.280;7.236;2024-01-16T05:12:55;15.83;;;12.97;;
870;SDS011;422;51.280;7.236;2024-01-16T05:15:24;18.70;;;12.10;;
870;SDS011;422;51.280;7.236;2024-01-16T05:17:53;19.10;;;13.10;;
870;SDS011;422;51.280;7.236;2024-01-16T05:20:20;21.40;;;13.17;;
870;SDS011;422;51.280;7.236;2024-01-16T05:22:47;16.97;;;13.60;;
870;SDS011;422;51.280;7.236;2024-01-16T05:25:15;16.23;;;13.97;;
870;SDS011;422;51.280;7.236;2024-01-16T05:27:43;19.00;;;13.17;;
870;SDS011;422;51.280;7.236;2024-01-16T05:30:11;17.57;;;12.37;;
870;SDS011;422;51.280;7.236;2024-01-16T05:32:38;16.77;;;11.97;;
870;SDS011;422;51.280;7.236;2024-01-16T05:35:08;15.30;;;11.70;;
870;SDS011;422;51.280;7.236;2024-01-16T05:37:35;15.53;;;11.43;;
870;SDS011;422;51.280;7.236;2024-01-16T05:40:03;16.37;;;12.23;;
870;SDS011;422;51.280;7.236;2024-01-16T05:42:32;14.07;;;11.07;;
870;SDS011;422;51.280;7.236;2024-01-16T05:45:00;14.57;;;12.17;;
870;SDS011;422;51.280;7.236;2024-01-16T05:47:27;16.17;;;11.87;;
870;SDS011;422;51.280;7.236;2024-01-16T05:49:55;16.53;;;11.93;;
870;SDS011;422;51.280;7.236;2024-01-16T05:52:24;16.80;;;11.20;;
870;SDS011;422;51.280;7.236;2024-01-16T05:54:51;20.00;;;12.23;;
870;SDS011;422;51.280;7.236;2024-01-16T05:57:22;18.13;;;11.90;;
870;SDS011;422;51.280;7.236;2024-01-16T05:59:49;16.70;;;13.77;;
870;SDS011;422;51.280;7.236;2024-01-16T06:02:17;16.80;;;13.53;;
870;SDS011;422;51.280;7.236;2024-01-16T06:04:44;18.70;;;15.23;;
870;SDS011;422;51.280;7.236;2024-01-16T06:07:11;22.03;;;15.30;;
870;SDS011;422;51.280;7.236;2024-01-16T06:09:40;20.47;;;15.30;;
870;SDS011;422;51.280;7.236;2024-01-16T06:12:07;21.90;;;15.27;;
870;SDS011;422;51.280;7.236;2024-01-16T06:14:35;19.70;;;14.87;;
870;SDS011;422;51.280;7.236;2024-01-16T06:17:02;20.67;;;14.13;;
870;SDS011;422;51.280;7.236;2024-01-16T06:19:31;23.70;;;15.63;;
870;SDS011;422;51.280;7.236;2024-01-16T06:21:58;19.93;;;14.10;;
870;SDS011;422;51.280;7.236;2024-01-16T06:24:25;19.77;;;15.10;;
870;SDS011;422;51.280;7.236;2024-01-16T06:26:54;19.13;;;15.50;;
870;SDS011;422;51.280;7.236;2024-01-16T06:29:21;19.17;;;16.10;;
870;SDS011;422;51.280;7.236;2024-01-16T06:31:48;20.70;;;15.63;;
870;SDS011;422;51.280;7.236;2024-01-16T06:34:16;21.87;;;14.83;;
870;SDS011;422;51.280;7.236;2024-01-16T06:36:43;20.33;;;15.30;;
870;SDS011;422;51.280;7.236;2024-01-16T06:39:10;21.00;;;14.13;;
870;SDS011;422;51.280;7.236;2024-01-16T06:41:39;26.27;;;16.33;;
870;SDS011;422;51.280;7.236;2024-01-16T06:44:08;26.63;;;15.80;;
870;SDS011;422;51.280;7.236;2024-01-16T06:46:35;23.80;;;16.80;;
870;SDS011;422;51.280;7.236;2024-01-16T06:49:02;20.33;;;15.93;;
870;SDS011;422;51.280;7.236;2024-01-16T06:51:29;23.17;;;17.00;;
870;SDS011;422;51.280;7.236;2024-01-16T06:53:57;22.63;;;17.00;;
870;SDS011;422;51.280;7.236;2024-01-16T06:56:24;21.70;;;14.47;;
870;SDS011;422;51.280;7.236;2024-01-16T06:58:51;21.83;;;14.43;;
870;SDS011;422;51.280;7.236;2024-01-16T07:01:20;21.83;;;16.07;;
870;SDS011;422;51.280;7.236;2024-01-16T07:03:47;21.90;;;13.93;;
870;SDS011;422;51.280;7.236;2024-01-16T07:06:15;17.93;;;13.20;;
870;SDS011;422;51.280;7.236;2024-01-16T07:08:42;20.80;;;12.60;;
870;SDS011;422;51.280;7.236;2024-01-16T07:11:09;19.03;;;13.90;;
870;SDS011;422;51.280;7.236;2024-01-16T07:13:38;21.87;;;12.90;;
870;SDS011;422;51.280;7.236;2024-01-16T07:16:06;22.50;;;13.43;;
870;SDS011;422;51.280;7.236;2024-01-16T07:18:37;20.97;;;12.53;;
870;SDS011;422;51.280;7.236;2024-01-16T07:21:04;33.93;;;21.57;;
870;SDS011;422;51.280;7.236;2024-01-16T07:23:42;24.40;;;15.60;;
870;SDS011;422;51.280;7.236;2024-01-16T07:26:09;27.37;;;16.97;;
870;SDS011;422;51.280;7.236;2024-01-16T07:28:37;19.47;;;14.10;;
870;SDS011;422;51.280;7.236;2024-01-16T07:31:04;20.23;;;11.90;;
870;SDS011;422;51.280;7.236;2024-01-16T07:33:32;19.40;;;11.23;;
870;SDS011;422;51.280;7.236;2024-01-16T07:36:00;23.07;;;10.73;;
870;SDS011;422;51.280;7.236;2024-01-16T07:38:28;21.63;;;10.20;;
870;SDS011;422;51.280;7.236;2024-01-16T07:40:55;15.00;;;8.97;;
870;SDS011;422;51.280;7.236;2024-01-16T07:43:22;17.23;;;8.97;;
870;SDS011;422;51.280;7.236;2024-01-16T07:45:50;16.93;;;9.20;;
870;SDS011;422;51.280;7.236;2024-01-16T07:48:17;15.30;;;9.10;;
870;SDS011;422;51.280;7.236;2024-01-16T07:50:45;16.57;;;8.27;;
870;SDS011;422;51.280;7.236;2024-01-16T07:53:13;15.97;;;7.90;;
870;SDS011;422;51.280;7.236;2024-01-16T07:55:41;18.00;;;8.37;;
870;SDS011;422;51.280;7.236;2024-01-16T07:58:09;16.33;;;7.70;;
870;SDS011;422;51.280;7.236;2024-01-16T08:00:37;17.37;;;7.83;;
870;SDS011;422;51.280;7.236;2024-01-16T08:03:07;13.87;;;7.80;;
870;SDS011;422;51.280;7.236;2024-01-16T08:05:37;14.40;;;7.50;;
870;SDS011;422;51.280;7.236;2024-01-16T08:08:05;16.07;;;8.00;;
870;SDS011;422;51.280;7.236;2024-01-16T08:10:37;13.40;;;6.83;;
870;SDS011;422;51.280;7.236;2024-01-16T08:13:07;14.60;;;7.13;;
870;SDS011;422;51.280;7.236;2024-01-16T08:15:35;11.40;;;7.37;;
870;SDS011;422;51.280;7.236;2024-01-16T08:18:03;13.07;;;6.33;;
870;SDS011;422;51.280;7.236;2024-01-16T08:20:30;12.77;;;5.90;;
870;SDS011;422;51.280;7.236;2024-01-16T08:22:58;9.80;;;6.00;;
870;SDS011;422;51.280;7.236;2024-01-16T08:25:25;11.90;;;6.13;;
870;SDS011;422;51.280;7.236;2024-01-16T08:27:54;12.97;;;6.27;;
870;SDS011;422;51.280;7.236;2024-01-16T08:30:22;16.73;;;5.87;;
870;SDS011;422;51.280;7.236;2024-01-16T08:32:49;11.80;;;5.73;;
870;SDS011;422;51.280;7.236;2024-01-16T08:35:16;11.40;;;5.23;;
870;SDS011;422;51.280;7.236;2024-01-16T08:37:44;16.33;;;6.20;;
870;SDS011;422;51.280;7.236;2024-01-16T08:40:11;16.37;;;6.00;;
870;SDS011;422;51.280;7.236;2024-01-16T08:42:39;9.07;;;5.37;;
870;SDS011;422;51.280;7.236;2024-01-16T08:45:08;9.93;;;5.20;;
870;SDS011;422;51.280;7.236;2024-01-16T08:47:35;9.50;;;5.27;;
870;SDS011;422;51.280;7.236;2024-01-16T08:50:03;19.27;;;5.43;;
870;SDS011;422;51.280;7.236;2024-01-16T08:52:31;17.40;;;5.80;;
870;SDS011;422;51.280;7.236;2024-01-16T08:54:58;9.27;;;4.37;;
870;SDS011;422;51.280;7.236;2024-01-16T08:57:26;11.83;;;5.63;;
870;SDS011;422;51.280;7.236;2024-01-16T08:59:53;7.67;;;5.00;;
870;SDS011;422;51.280;7.236;2024-01-16T09:02:22;9.03;;;4.73;;
870;SDS011;422;51.280;7.236;2024-01-16T09:04:49;8.70;;;4.53;;
870;SDS011;422;51.280;7.236;2024-01-16T09:07:17;10.57;;;4.87;;
870;SDS011;422;51.280;7.236;2024-01-16T09:09:44;9.37;;;5.40;;
870;SDS011;422;51.280;7.236;2024-01-16T09:12:11;11.20;;;4.80;;
870;SDS011;422;51.280;7.236;2024-01-16T09:14:40;15.40;;;5.47;;
870;SDS011;422;51.280;7.236;2024-01-16T09:17:08;12.63;;;5.00;;
870;SDS011;422;51.280;7.236;2024-01-16T09:19:37;12.03;;;4.93;;
870;SDS011;422;51.280;7.236;2024-01-16T09:22:04;6.37;;;4.30;;
870;SDS011;422;51.280;7.236;2024-01-16T09:24:32;8.60;;;5.13;;
870;SDS011;422;51.280;7.236;2024-01-16T09:26:59;8.83;;;4.43;;
870;SDS011;422;51.280;7.236;2024-01-16T09:29:31;9.50;;;4.37;;
870;SDS011;422;51.280;7.236;2024-01-16T09:31:59;17.47;;;5.60;;
870;SDS011;422;51.280;7.236;2024-01-16T09:34:26;13.30;;;4.87;;
870;SDS011;422;51.280;7.236;2024-01-16T09:36:55;8.90;;;3.63;;
870;SDS011;422;51.280;7.236;2024-01-16T09:39:26;9.73;;;4.40;;
870;SDS011;422;51.280;7.236;2024-01-16T09:41:55;10.53;;;5.30;;
870;SDS011;422;51.280;7.236;2024-01-16T09:44:26;15.13;;;5.03;;
870;SDS011;422;51.280;7.236;2024-01-16T09:46:55;9.53;;;4.97;;
870;SDS011;422;51.280;7.236;2024-01-16T09:49:24;9.90;;;5.00;;
870;SDS011;422;51.280;7.236;2024-01-16T09:51:52;11.30;;;4.53;;
870;SDS011;422;51.280;7.236;2024-01-16T09:54:21;12.57;;;5.03;;
870;SDS011;422;51.280;7.236;2024-01-16T09:56:50;8.80;;;4.23;;
870;SDS011;422;51.280;7.236;2024-01-16T09:59:20;6.87;;;4.20;;
870;SDS011;422;51.280;7.236;2024-01-16T10:01:48;14.97;;;4.60;;
870;SDS011;422;51.280;7.236;2024-01-16T10:04:18;7.40;;;3.90;;
870;SDS011;422;51.280;7.236;2024-01-16T10:06:46;9.97;;;4.90;;
870;SDS011;422;51.280;7.236;2024-01-16T10:09:14;9.23;;;4.17;;
870;SDS011;422;51.280;7.236;2024-01-16T10:11:44;12.87;;;5.57;;
870;SDS011;422;51.280;7.236;2024-01-16T10:14:11;8.93;;;5.47;;
870;SDS011;422;51.280;7.236;2024-01-16T10:16:55;10.33;;;5.37;;
870;SDS011;422;51.280;7.236;2024-01-16T10:19:24;12.50;;;5.17;;
870;SDS011;422;51.280;7.236;2024-01-16T10:21:56;13.50;;;5.27;;
870;SDS011;422;51.280;7.236;2024-01-16T10:24:28;15.60;;;5.90;;
870;SDS011;422;51.280;7.236;2024-01-16T10:26:58;10.17;;;5.30;;
870;SDS011;422;51.280;7.236;2024-01-16T10:29:28;8.13;;;5.30;;
870;SDS011;422;51.280;7.236;2024-01-16T10:31:56;8.40;;;5.00;;
870;SDS011;422;51.280;7.236;2024-01-16T10:34:24;11.10;;;5.20;;
870;SDS011;422;51.280;7.236;2024-01-16T10:36:52;8.77;;;4.53;;
870;SDS011;422;51.280;7.236;2024-01-16T10:39:25;13.13;;;5.33;;
870;SDS011;422;51.280;7.236;2024-01-16T10:41:56;9.57;;;5.20;;
870;SDS011;422;51.280;7.236;2024-01-16T10:44:25;9.60;;;5.30;;
870;SDS011;422;51.280;7.236;2024-01-16T10:47:04;14.77;;;4.90;;
870;SDS011;422;51.280;7.236;2024-01-16T10:49:37;6.77;;;5.47;;
870;SDS011;422;51.280;7.236;2024-01-16T10:52:06;11.90;;;6.10;;
870;SDS011;422;51.280;7.236;2024-01-16T10:54:38;13.63;;;5.43;;
870;SDS011;422;51.280;7.236;2024-01-16T10:57:11;25.37;;;7.40;;
870;SDS011;422;51.280;7.236;2024-01-16T10:59:42;12.40;;;5.73;;
870;SDS011;422;51.280;7.236;2024-01-16T11:02:16;11.87;;;5.70;;
870;SDS011;422;51.280;7.236;2024-01-16T11:04:47;17.70;;;7.23;;
870;SDS011;422;51.280;7.236;2024-01-16T11:07:17;12.63;;;5.73;;
870;SDS011;422;51.280;7.236;2024-01-16T11:09:47;16.20;;;7.63;;
870;SDS011;422;51.280;7.236;2024-01-16T11:12:17;12.00;;;6.27;;
870;SDS011;422;51.280;7.236;2024-01-16T11:14:47;14.07;;;6.70;;
870;SDS011;422;51.280;7.236;2024-01-16T11:17:18;13.30;;;6.70;;
870;SDS011;422;51.280;7.236;2024-01-16T11:19:46;11.43;;;5.37;;
870;SDS011;422;51.280;7.236;2024-01-16T11:22:15;13.07;;;5.30;;
870;SDS011;422;51.280;7.236;2024-01-16T11:24:43;10.27;;;5.20;;
870;SDS011;422;51.280;7.236;2024-01-16T11:27:22;12.87;;;5.27;;
870;SDS011;422;51.280;7.236;2024-01-16T11:29:50;8.73;;;5.60;;
870;SDS011;422;51.280;7.236;2024-01-16T11:32:32;10.40;;;5.33;;
870;SDS011;422;51.280;7.236;2024-01-16T11:35:02;10.63;;;5.87;;
870;SDS011;422;51.280;7.236;2024-01-16T11:37:31;8.60;;;4.80;;
870;SDS011;422;51.280;7.236;2024-01-16T11:42:52;10.53;;;6.20;;
870;SDS011;422;51.280;7.236;2024-01-16T11:48:16;6.20;;;4.70;;
870;SDS011;422;51.280;7.236;2024-01-16T11:50:45;9.67;;;4.80;;
870;SDS011;422;51.280;7.236;2024-01-16T11:53:31;7.93;;;5.00;;
870;SDS011;422;51.280;7.236;2024-01-16T11:56:12;13.73;;;6.43;;
870;SDS011;422;51.280;7.236;2024-01-16T11:59:01;14.00;;;6.77;;
870;SDS011;422;51.280;7.236;2024-01-16T12:01:41;11.83;;;6.57;;
870;SDS011;422;51.280;7.236;2024-01-16T12:04:11;11.80;;;6.03;;
870;SDS011;422;51.280;7.236;2024-01-16T12:06:43;13.20;;;5.87;;
870;SDS011;422;51.280;7.236;2024-01-16T12:09:25;11.10;;;5.70;;
870;SDS011;422;51.280;7.236;2024-01-16T12:11:56;13.67;;;6.37;;
870;SDS011;422;51.280;7.236;2024-01-16T12:14:25;11.67;;;6.30;;
870;SDS011;422;51.280;7.236;2024-01-16T12:16:53;12.40;;;6.07;;
870;SDS011;422;51.280;7.236;2024-01-16T12:19:36;12.70;;;6.30;;
870;SDS011;422;51.280;7.236;2024-01-16T12:22:05;14.07;;;7.70;;
870;SDS011;422;51.280;7.236;2024-01-16T12:24:35;12.70;;;8.30;;
870;SDS011;422;51.280;7.236;2024-01-16T12:27:03;14.27;;;6.63;;
870;SDS011;422;51.280;7.236;2024-01-16T12:29:32;12.40;;;7.50;;
870;SDS011;422;51.280;7.236;2024-01-16T12:32:07;12.47;;;7.37;;
870;SDS011;422;51.280;7.236;2024-01-16T12:34:43;12.90;;;6.90;;
870;SDS011;422;51.280;7.236;2024-01-16T12:37:11;12.10;;;6.63;;
870;SDS011;422;51.280;7.236;2024-01-16T12:39:39;11.17;;;5.80;;
870;SDS011;422;51.280;7.236;2024-01-16T12:42:07;13.93;;;7.53;;
870;SDS011;422;51.280;7.236;2024-01-16T12:44:38;12.13;;;6.83;;
870;SDS011;422;51.280;7.236;2024-01-16T12:47:05;18.23;;;8.03;;
870;SDS011;422;51.280;7.236;2024-01-16T12:49:33;10.63;;;7.43;;
870;SDS011;422;51.280;7.236;2024-01-16T12:52:17;13.27;;;6.60;;
870;SDS011;422;51.280;7.236;2024-01-16T12:54:45;13.00;;;7.13;;
870;SDS011;422;51.280;7.236;2024-01-16T12:57:17;8.23;;;5.93;;
870;SDS011;422;51.280;7.236;2024-01-16T12:59:48;10.53;;;7.17;;
870;SDS011;422;51.280;7.236;2024-01-16T13:02:20;13.80;;;7.50;;
870;SDS011;422;51.280;7.236;2024-01-16T13:04:48;11.40;;;6.30;;
870;SDS011;422;51.280;7.236;2024-01-16T13:07:24;12.03;;;6.47;;
870;SDS011;422;51.280;7.236;2024-01-16T13:10:05;15.10;;;7.57;;
870;SDS011;422;51.280;7.236;2024-01-16T13:12:34;10.20;;;5.83;;
870;SDS011;422;51.280;7.236;2024-01-16T13:15:03;14.87;;;6.80;;
870;SDS011;422;51.280;7.236;2024-01-16T13:17:31;9.43;;;6.77;;
870;SDS011;422;51.280;7.236;2024-01-16T13:19:59;9.73;;;5.40;;
870;SDS011;422;51.280;7.236;2024-01-16T13:22:28;9.13;;;6.33;;
870;SDS011;422;51.280;7.236;2024-01-16T13:24:56;10.97;;;6.30;;
870;SDS011;422;51.280;7.236;2024-01-16T13:27:23;12.80;;;7.27;;
870;SDS011;422;51.280;7.236;2024-01-16T13:29:52;12.83;;;6.80;;
870;SDS011;422;51.280;7.236;2024-01-16T13:32:20;9.20;;;5.50;;
870;SDS011;422;51.280;7.236;2024-01-16T13:34:48;9.97;;;6.00;;
870;SDS011;422;51.280;7.236;2024-01-16T13:37:18;11.10;;;5.97;;
870;SDS011;422;51.280;7.236;2024-01-16T13:39:48;9.40;;;6.30;;
870;SDS011;422;51.280;7.236;2024-01-16T13:42:16;12.13;;;6.60;;
870;SDS011;422;51.280;7.236;2024-01-16T13:44:45;11.70;;;5.83;;
870;SDS011;422;51.280;7.236;2024-01-16T13:47:15;12.23;;;5.87;;
870;SDS011;422;51.280;7.236;2024-01-16T13:49:45;11.97;;;6.17;;
870;SDS011;422;51.280;7.236;2024-01-16T13:52:13;12.87;;;7.13;;
870;SDS011;422;51.280;7.236;2024-01-16T13:54:40;10.70;;;6.10;;
870;SDS011;422;51.280;7.236;2024-01-16T13:57:08;11.60;;;6.10;;
870;SDS011;422;51.280;7.236;2024-01-16T13:59:36;12.40;;;5.93;;
870;SDS011;422;51.280;7.236;2024-01-16T14:02:03;11.10;;;6.30;;
870;SDS011;422;51.280;7.236;2024-01-16T14:04:33;10.53;;;6.93;;
870;SDS011;422;51.280;7.236;2024-01-16T14:07:03;14.77;;;7.80;;
870;SDS011;422;51.280;7.236;2024-01-16T14:09:32;10.67;;;5.70;;
870;SDS011;422;51.280;7.236;2024-01-16T14:12:01;13.20;;;6.93;;
870;SDS011;422;51.280;7.236;2024-01-16T14:14:28;10.87;;;6.27;;
870;SDS011;422;51.280;7.236;2024-01-16T14:16:57;11.97;;;6.57;;
870;SDS011;422;51.280;7.236;2024-01-16T14:19:24;14.80;;;7.27;;
870;SDS011;422;51.280;7.236;2024-01-16T14:21:52;12.50;;;6.77;;
870;SDS011;422;51.280;7.236;2024-01-16T14:24:21;8.20;;;5.70;;
870;SDS011;422;51.280;7.236;2024-01-16T14:26:49;12.80;;;6.87;;
870;SDS011;422;51.280;7.236;2024-01-16T14:29:16;15.97;;;7.23;;
870;SDS011;422;51.280;7.236;2024-01-16T14:31:43;10.70;;;6.50;;
870;SDS011;422;51.280;7.236;2024-01-16T14:34:13;11.47;;;7.47;;
870;SDS011;422;51.280;7.236;2024-01-16T14:36:41;15.63;;;7.77;;
870;SDS011;422;51.280;7.236;2024-01-16T14:39:09;12.37;;;8.40;;
870;SDS011;422;51.280;7.236;2024-01-16T14:41:40;16.80;;;7.67;;
870;SDS011;422;51.280;7.236;2024-01-16T14:44:08;12.33;;;7.80;;
870;SDS011;422;51.280;7.236;2024-01-16T14:46:36;11.27;;;7.40;;
870;SDS011;422;51.280;7.236;2024-01-16T14:49:03;15.37;;;7.03;;
870;SDS011;422;51.280;7.236;2024-01-16T14:51:31;13.63;;;7.37;;
870;SDS011;422;51.280;7.236;2024-01-16T14:53:58;10.90;;;6.60;;
870;SDS011;422;51.280;7.236;2024-01-16T14:56:27;15.30;;;7.67;;
870;SDS011;422;51.280;7.236;2024-01-16T14:58:56;11.80;;;7.13;;
870;SDS011;422;51.280;7.236;2024-01-16T15:01:24;10.13;;;6.93;;
870;SDS011;422;51.280;7.236;2024-01-16T15:03:52;14.23;;;6.83;;
870;SDS011;422;51.280;7.236;2024-01-16T15:06:20;13.63;;;7.27;;
870;SDS011;422;51.280;7.236;2024-01-16T15:08:50;11.80;;;7.70;;
870;SDS011;422;51.280;7.236;2024-01-16T15:11:18;12.90;;;9.47;;
870;SDS011;422;51.280;7.236;2024-01-16T15:13:45;11.60;;;8.40;;
870;SDS011;422;51.280;7.236;2024-01-16T15:16:15;14.27;;;9.27;;
870;SDS011;422;51.280;7.236;2024-01-16T15:18:43;16.77;;;8.77;;
870;SDS011;422;51.280;7.236;2024-01-16T15:21:09;13.20;;;8.87;;
870;SDS011;422;51.280;7.236;2024-01-16T15:23:40;14.07;;;8.93;;
870;SDS011;422;51.280;7.236;2024-01-16T15:26:08;17.47;;;11.20;;
870;SDS011;422;51.280;7.236;2024-01-16T15:28:35;24.10;;;15.37;;
870;SDS011;422;51.280;7.236;2024-01-16T15:31:06;33.50;;;18.43;;
870;SDS011;422;51.280;7.236;2024-01-16T15:33:35;31.63;;;16.97;;
870;SDS011;422;51.280;7.236;2024-01-16T15:36:03;23.00;;;13.20;;
870;SDS011;422;51.280;7.236;2024-01-16T15:38:31;33.53;;;17.23;;
870;SDS011;422;51.280;7.236;2024-01-16T15:40:58;28.57;;;15.30;;